sensor_id;sensor_type;location;lat;lon;timestamp;temperature;humidity
61004;DHT22;46889;37.310;13.582;2024-01-30T00:01:27;9.20;99.90
61004;DHT22;46889;37.310;13.582;2024-01-30T00:03:53;9.20;99.90
61004;DHT22;46889;37.310;13.582;2024-01-30T00:06:19;9.20;99.90
61004;DHT22;46889;37.310;13.582;2024-01-30T00:08:49;9.20;99.90
61004;DHT22;46889;37.310;13.582;2024-01-30T00:11:15;9.20;99.90
61004;DHT22;46889;37.310;13.582;2024-01-30T00:13:41;9.30;99.90
61004;DHT22;46889;37.310;13.582;2024-01-30T00:16:07;9.20;99.90
61004;DHT22;46889;37.310;13.582;2024-01-30T00:18:34;9.20;99.90
61004;DHT22;46889;37.310;13.582;2024-01-30T00:20:59;9.10;99.90
61004;DHT22;46889;37.310;13.582;2024-01-30T00:23:25;9.10;99.90
61004;DHT22;46889;37.310;13.582;2024-01-30T00:25:51;9.10;99.90
61004;DHT22;46889;37.310;13.582;2024-01-30T00:28:17;9.10;99.90
61004;DHT22;46889;37.310;13.582;2024-01-30T00:30:43;9.10;99.90
61004;DHT22;46889;37.310;13.582;2024-01-30T00:33:09;9.10;99.90
61004;DHT22;46889;37.310;13.582;2024-01-30T00:35:35;9.10;99.90
61004;DHT22;46889;37.310;13.582;2024-01-30T00:38:00;9.10;99.90
61004;DHT22;46889;37.310;13.582;2024-01-30T00:40:26;9.10;99.90
61004;DHT22;46889;37.310;13.582;2024-01-30T00:42:52;9.10;99.90
61004;DHT22;46889;37.310;13.582;2024-01-30T00:45:18;9.10;99.90
61004;DHT22;46889;37.310;13.582;2024-01-30T00:47:44;9.10;99.90
61004;DHT22;46889;37.310;13.582;2024-01-30T00:50:10;9.10;99.90
61004;DHT22;46889;37.310;13.582;2024-01-30T00:52:36;9.00;99.90
61004;DHT22;46889;37.310;13.582;2024-01-30T00:55:04;9.00;99.90
61004;DHT22;46889;37.310;13.582;2024-01-30T00:57:31;9.00;99.90
61004;DHT22;46889;37.310;13.582;2024-01-30T00:59:57;8.90;99.90
61004;DHT22;46889;37.310;13.582;2024-01-30T01:02:23;8.90;99.90
61004;DHT22;46889;37.310;13.582;2024-01-30T01:04:49;8.80;99.90
61004;DHT22;46889;37.310;13.582;2024-01-30T01:07:17;8.80;99.90
61004;DHT22;46889;37.310;13.582;2024-01-30T01:09:43;8.80;99.90
61004;DHT22;46889;37.310;13.582;2024-01-30T01:12:09;8.80;99.90
61004;DHT22;46889;37.310;13.582;2024-01-30T01:14:35;8.80;99.90
61004;DHT22;46889;37.310;13.582;2024-01-30T01:17:01;8.70;99.90
61004;DHT22;46889;37.310;13.582;2024-01-30T01:19:27;8.60;99.90
61004;DHT22;46889;37.310;13.582;2024-01-30T01:21:53;8.70;99.90
61004;DHT22;46889;37.310;13.582;2024-01-30T01:24:19;8.60;99.90
61004;DHT22;46889;37.310;13.582;2024-01-30T01:26:45;8.50;99.90
61004;DHT22;46889;37.310;13.582;2024-01-30T01:29:10;8.50;99.90
61004;DHT22;46889;37.310;13.582;2024-01-30T01:31:37;8.50;99.90
61004;DHT22;46889;37.310;13.582;2024-01-30T01:34:12;8.40;99.90
61004;DHT22;46889;37.310;13.582;2024-01-30T01:36:38;8.40;99.90
61004;DHT22;46889;37.310;13.582;2024-01-30T01:39:04;8.40;99.90
61004;DHT22;46889;37.310;13.582;2024-01-30T01:41:32;8.20;99.90
61004;DHT22;46889;37.310;13.582;2024-01-30T01:43:58;8.30;99.90
61004;DHT22;46889;37.310;13.582;2024-01-30T01:46:27;8.30;99.90
61004;DHT22;46889;37.310;13.582;2024-01-30T01:48:55;8.20;99.90
61004;DHT22;46889;37.310;13.582;2024-01-30T01:51:22;8.30;99.90
61004;DHT22;46889;37.310;13.582;2024-01-30T01:53:48;8.20;99.90
61004;DHT22;46889;37.310;13.582;2024-01-30T01:56:14;8.30;99.90
61004;DHT22;46889;37.310;13.582;2024-01-30T01:58:40;8.30;99.90
61004;DHT22;46889;37.310;13.582;2024-01-30T02:01:07;8.30;99.90
61004;DHT22;46889;37.310;13.582;2024-01-30T02:03:33;8.30;99.90
61004;DHT22;46889;37.310;13.582;2024-01-30T02:06:00;8.30;99.90
61004;DHT22;46889;37.310;13.582;2024-01-30T02:08:27;8.20;99.90
61004;DHT22;46889;37.310;13.582;2024-01-30T02:10:53;8.20;99.90
61004;DHT22;46889;37.310;13.582;2024-01-30T02:13:20;8.20;99.90
61004;DHT22;46889;37.310;13.582;2024-01-30T02:15:52;8.10;99.90
61004;DHT22;46889;37.310;13.582;2024-01-30T02:18:19;8.10;99.90
61004;DHT22;46889;37.310;13.582;2024-01-30T02:20:45;8.00;99.90
61004;DHT22;46889;37.310;13.582;2024-01-30T02:23:11;8.00;99.90
61004;DHT22;46889;37.310;13.582;2024-01-30T02:25:39;8.00;99.90
61004;DHT22;46889;37.310;13.582;2024-01-30T02:28:10;8.00;99.90
61004;DHT22;46889;37.310;13.582;2024-01-30T02:30:36;8.00;99.90
61004;DHT22;46889;37.310;13.582;2024-01-30T02:33:02;8.00;99.90
61004;DHT22;46889;37.310;13.582;2024-01-30T02:35:34;8.00;99.90
61004;DHT22;46889;37.310;13.582;2024-01-30T02:38:02;8.00;99.90
61004;DHT22;46889;37.310;13.582;2024-01-30T02:40:27;8.10;99.90
61004;DHT22;46889;37.310;13.582;2024-01-30T02:42:53;8.10;99.90
61004;DHT22;46889;37.310;13.582;2024-01-30T02:45:19;8.10;99.90
61004;DHT22;46889;37.310;13.582;2024-01-30T02:47:45;8.10;99.90
61004;DHT22;46889;37.310;13.582;2024-01-30T02:50:11;8.10;99.90
61004;DHT22;46889;37.310;13.582;2024-01-30T02:52:37;8.10;99.90
61004;DHT22;46889;37.310;13.582;2024-01-30T02:55:03;8.20;99.90
61004;DHT22;46889;37.310;13.582;2024-01-30T02:57:30;8.20;99.90
61004;DHT22;46889;37.310;13.582;2024-01-30T02:59:56;8.10;99.90
61004;DHT22;46889;37.310;13.582;2024-01-30T03:02:21;8.10;99.90
61004;DHT22;46889;37.310;13.582;2024-01-30T03:04:47;8.10;99.90
61004;DHT22;46889;37.310;13.582;2024-01-30T03:07:13;8.10;99.90
61004;DHT22;46889;37.310;13.582;2024-01-30T03:09:41;8.00;99.90
61004;DHT22;46889;37.310;13.582;2024-01-30T03:12:07;8.00;99.90
61004;DHT22;46889;37.310;13.582;2024-01-30T03:14:33;8.00;99.90
61004;DHT22;46889;37.310;13.582;2024-01-30T03:16:59;8.10;99.90
61004;DHT22;46889;37.310;13.582;2024-01-30T03:19:25;8.00;99.90
61004;DHT22;46889;37.310;13.582;2024-01-30T03:21:51;7.90;99.90
61004;DHT22;46889;37.310;13.582;2024-01-30T03:24:16;8.00;99.90
61004;DHT22;46889;37.310;13.582;2024-01-30T03:26:43;7.90;99.90
61004;DHT22;46889;37.310;13.582;2024-01-30T03:29:08;8.00;99.90
61004;DHT22;46889;37.310;13.582;2024-01-30T03:31:34;8.00;99.90
61004;DHT22;46889;37.310;13.582;2024-01-30T03:34:00;8.00;99.90
61004;DHT22;46889;37.310;13.582;2024-01-30T03:36:26;7.90;99.90
61004;DHT22;46889;37.310;13.582;2024-01-30T03:38:52;7.80;99.90
61004;DHT22;46889;37.310;13.582;2024-01-30T03:41:18;7.80;99.90
61004;DHT22;46889;37.310;13.582;2024-01-30T03:43:43;7.80;99.90
61004;DHT22;46889;37.310;13.582;2024-01-30T03:46:11;7.70;99.90
61004;DHT22;46889;37.310;13.582;2024-01-30T03:48:37;7.60;99.90
61004;DHT22;46889;37.310;13.582;2024-01-30T03:51:03;7.60;99.90
61004;DHT22;46889;37.310;13.582;2024-01-30T03:53:29;7.60;99.90
61004;DHT22;46889;37.310;13.582;2024-01-30T03:55:54;7.60;99.90
61004;DHT22;46889;37.310;13.582;2024-01-30T03:58:20;7.70;99.90
61004;DHT22;46889;37.310;13.582;2024-01-30T04:00:46;7.70;99.90
61004;DHT22;46889;37.310;13.582;2024-01-30T04:03:12;7.70;99.90
61004;DHT22;46889;37.310;13.582;2024-01-30T04:05:37;7.70;99.90
61004;DHT22;46889;37.310;13.582;2024-01-30T04:08:03;7.70;99.90
61004;DHT22;46889;37.310;13.582;2024-01-30T04:10:29;7.60;99.90
61004;DHT22;46889;37.310;13.582;2024-01-30T04:12:55;7.60;99.90
61004;DHT22;46889;37.310;13.582;2024-01-30T04:15:22;7.60;99.90
61004;DHT22;46889;37.310;13.582;2024-01-30T04:17:49;7.70;99.90
61004;DHT22;46889;37.310;13.582;2024-01-30T04:20:15;7.60;99.90
61004;DHT22;46889;37.310;13.582;2024-01-30T04:22:45;7.60;99.90
61004;DHT22;46889;37.310;13.582;2024-01-30T04:25:13;7.60;99.90
61004;DHT22;46889;37.310;13.582;2024-01-30T04:27:39;7.60;99.90
61004;DHT22;46889;37.310;13.582;2024-01-30T04:30:05;7.60;99.90
61004;DHT22;46889;37.310;13.582;2024-01-30T04:32:32;7.60;99.90
61004;DHT22;46889;37.310;13.582;2024-01-30T04:34:58;7.50;99.90
61004;DHT22;46889;37.310;13.582;2024-01-30T04:37:24;7.50;99.90
61004;DHT22;46889;37.310;13.582;2024-01-30T04:39:50;7.50;99.90
61004;DHT22;46889;37.310;13.582;2024-01-30T04:42:16;7.50;99.90
61004;DHT22;46889;37.310;13.582;2024-01-30T04:44:42;7.40;99.90
61004;DHT22;46889;37.310;13.582;2024-01-30T04:47:08;7.40;99.90
61004;DHT22;46889;37.310;13.582;2024-01-30T04:49:36;7.40;99.90
61004;DHT22;46889;37.310;13.582;2024-01-30T04:52:02;7.50;99.90
61004;DHT22;46889;37.310;13.582;2024-01-30T04:54:28;7.50;99.90
61004;DHT22;46889;37.310;13.582;2024-01-30T04:56:54;7.50;99.90
61004;DHT22;46889;37.310;13.582;2024-01-30T04:59:21;7.50;99.90
61004;DHT22;46889;37.310;13.582;2024-01-30T05:01:46;7.50;99.90
61004;DHT22;46889;37.310;13.582;2024-01-30T05:04:12;7.50;99.90
61004;DHT22;46889;37.310;13.582;2024-01-30T05:06:38;7.40;99.90
61004;DHT22;46889;37.310;13.582;2024-01-30T05:09:04;7.40;99.90
61004;DHT22;46889;37.310;13.582;2024-01-30T05:11:30;7.40;99.90
61004;DHT22;46889;37.310;13.582;2024-01-30T05:13:56;7.40;99.90
61004;DHT22;46889;37.310;13.582;2024-01-30T05:16:22;7.50;99.90
61004;DHT22;46889;37.310;13.582;2024-01-30T05:18:48;7.60;99.90
61004;DHT22;46889;37.310;13.582;2024-01-30T05:21:14;7.60;99.90
61004;DHT22;46889;37.310;13.582;2024-01-30T05:23:40;7.60;99.90
61004;DHT22;46889;37.310;13.582;2024-01-30T05:26:07;7.60;99.90
61004;DHT22;46889;37.310;13.582;2024-01-30T05:28:33;7.70;99.90
61004;DHT22;46889;37.310;13.582;2024-01-30T05:30:59;7.70;99.90
61004;DHT22;46889;37.310;13.582;2024-01-30T05:33:25;7.70;99.90
61004;DHT22;46889;37.310;13.582;2024-01-30T05:35:51;7.80;99.90
61004;DHT22;46889;37.310;13.582;2024-01-30T05:38:19;7.80;99.90
61004;DHT22;46889;37.310;13.582;2024-01-30T05:40:45;7.80;99.90
61004;DHT22;46889;37.310;13.582;2024-01-30T05:43:11;7.80;99.90
61004;DHT22;46889;37.310;13.582;2024-01-30T05:45:37;7.70;99.90
61004;DHT22;46889;37.310;13.582;2024-01-30T05:48:04;7.70;99.90
61004;DHT22;46889;37.310;13.582;2024-01-30T05:50:30;7.70;99.90
61004;DHT22;46889;37.310;13.582;2024-01-30T05:52:56;7.70;99.90
61004;DHT22;46889;37.310;13.582;2024-01-30T05:55:22;7.70;99.90
61004;DHT22;46889;37.310;13.582;2024-01-30T05:57:47;7.80;99.90
61004;DHT22;46889;37.310;13.582;2024-01-30T06:00:13;7.80;99.90
61004;DHT22;46889;37.310;13.582;2024-01-30T06:02:39;7.80;99.90
61004;DHT22;46889;37.310;13.582;2024-01-30T06:05:05;7.80;99.90
61004;DHT22;46889;37.310;13.582;2024-01-30T06:07:31;7.80;99.90
61004;DHT22;46889;37.310;13.582;2024-01-30T06:09:57;7.80;99.90
61004;DHT22;46889;37.310;13.582;2024-01-30T06:12:23;7.90;99.90
61004;DHT22;46889;37.310;13.582;2024-01-30T06:14:49;7.90;99.90
61004;DHT22;46889;37.310;13.582;2024-01-30T06:17:14;7.90;99.90
61004;DHT22;46889;37.310;13.582;2024-01-30T06:19:40;8.00;99.90
61004;DHT22;46889;37.310;13.582;2024-01-30T06:22:07;8.10;99.90
61004;DHT22;46889;37.310;13.582;2024-01-30T06:24:32;8.10;99.90
61004;DHT22;46889;37.310;13.582;2024-01-30T06:26:59;8.20;99.90
61004;DHT22;46889;37.310;13.582;2024-01-30T06:29:26;8.20;99.90
61004;DHT22;46889;37.310;13.582;2024-01-30T06:31:52;8.30;99.90
61004;DHT22;46889;37.310;13.582;2024-01-30T06:34:18;8.30;99.90
61004;DHT22;46889;37.310;13.582;2024-01-30T06:36:43;8.50;99.90
61004;DHT22;46889;37.310;13.582;2024-01-30T06:39:09;9.00;99.90
61004;DHT22;46889;37.310;13.582;2024-01-30T06:41:35;9.60;99.90
61004;DHT22;46889;37.310;13.582;2024-01-30T06:44:04;10.00;99.90
61004;DHT22;46889;37.310;13.582;2024-01-30T06:46:32;10.00;99.90
61004;DHT22;46889;37.310;13.582;2024-01-30T06:48:58;10.10;99.90
61004;DHT22;46889;37.310;13.582;2024-01-30T06:51:24;10.40;99.90
61004;DHT22;46889;37.310;13.582;2024-01-30T06:53:50;10.90;99.90
61004;DHT22;46889;37.310;13.582;2024-01-30T06:56:16;11.30;99.90
61004;DHT22;46889;37.310;13.582;2024-01-30T06:58:47;11.80;99.90
61004;DHT22;46889;37.310;13.582;2024-01-30T07:01:12;12.20;99.90
61004;DHT22;46889;37.310;13.582;2024-01-30T07:03:38;12.40;99.90
61004;DHT22;46889;37.310;13.582;2024-01-30T07:06:04;12.70;99.90
61004;DHT22;46889;37.310;13.582;2024-01-30T07:08:31;12.70;99.90
61004;DHT22;46889;37.310;13.582;2024-01-30T07:10:58;12.30;99.90
61004;DHT22;46889;37.310;13.582;2024-01-30T07:13:25;12.20;99.90
61004;DHT22;46889;37.310;13.582;2024-01-30T07:15:51;12.00;99.90
61004;DHT22;46889;37.310;13.582;2024-01-30T07:18:17;11.90;99.90
61004;DHT22;46889;37.310;13.582;2024-01-30T07:20:43;11.70;99.90
61004;DHT22;46889;37.310;13.582;2024-01-30T07:23:12;11.40;99.90
61004;DHT22;46889;37.310;13.582;2024-01-30T07:25:40;11.10;99.90
61004;DHT22;46889;37.310;13.582;2024-01-30T07:28:07;11.20;99.90
61004;DHT22;46889;37.310;13.582;2024-01-30T07:30:34;11.40;99.90
61004;DHT22;46889;37.310;13.582;2024-01-30T07:33:00;11.40;99.90
61004;DHT22;46889;37.310;13.582;2024-01-30T07:35:26;11.30;99.90
61004;DHT22;46889;37.310;13.582;2024-01-30T07:37:52;11.60;99.90
61004;DHT22;46889;37.310;13.582;2024-01-30T07:40:18;11.90;99.90
61004;DHT22;46889;37.310;13.582;2024-01-30T07:42:44;12.00;99.90
61004;DHT22;46889;37.310;13.582;2024-01-30T07:45:10;12.20;99.90
61004;DHT22;46889;37.310;13.582;2024-01-30T07:47:36;12.40;99.90
61004;DHT22;46889;37.310;13.582;2024-01-30T07:50:02;12.70;99.90
61004;DHT22;46889;37.310;13.582;2024-01-30T07:52:28;13.60;99.90
61004;DHT22;46889;37.310;13.582;2024-01-30T07:54:54;14.60;99.90
61004;DHT22;46889;37.310;13.582;2024-01-30T07:57:20;15.30;99.90
61004;DHT22;46889;37.310;13.582;2024-01-30T07:59:46;15.60;99.90
61004;DHT22;46889;37.310;13.582;2024-01-30T08:02:12;15.50;99.90
61004;DHT22;46889;37.310;13.582;2024-01-30T08:04:38;15.30;99.90
61004;DHT22;46889;37.310;13.582;2024-01-30T08:07:05;15.10;99.90
61004;DHT22;46889;37.310;13.582;2024-01-30T08:09:30;15.00;99.90
61004;DHT22;46889;37.310;13.582;2024-01-30T08:11:57;14.90;99.90
61004;DHT22;46889;37.310;13.582;2024-01-30T08:14:22;15.10;99.90
61004;DHT22;46889;37.310;13.582;2024-01-30T08:16:48;15.20;99.90
61004;DHT22;46889;37.310;13.582;2024-01-30T08:19:14;15.00;99.90
61004;DHT22;46889;37.310;13.582;2024-01-30T08:21:40;14.90;99.90
61004;DHT22;46889;37.310;13.582;2024-01-30T08:24:06;14.70;99.90
61004;DHT22;46889;37.310;13.582;2024-01-30T08:26:33;14.60;99.90
61004;DHT22;46889;37.310;13.582;2024-01-30T08:28:59;14.80;99.90
61004;DHT22;46889;37.310;13.582;2024-01-30T08:31:25;14.50;99.90
61004;DHT22;46889;37.310;13.582;2024-01-30T08:33:51;14.00;99.90
61004;DHT22;46889;37.310;13.582;2024-01-30T08:36:17;13.60;99.90
61004;DHT22;46889;37.310;13.582;2024-01-30T08:38:43;13.00;99.90
61004;DHT22;46889;37.310;13.582;2024-01-30T08:41:09;13.10;99.90
61004;DHT22;46889;37.310;13.582;2024-01-30T08:43:35;13.30;99.90
61004;DHT22;46889;37.310;13.582;2024-01-30T08:46:02;13.70;99.90
61004;DHT22;46889;37.310;13.582;2024-01-30T08:48:27;13.80;99.90
61004;DHT22;46889;37.310;13.582;2024-01-30T08:50:54;14.20;99.90
61004;DHT22;46889;37.310;13.582;2024-01-30T08:53:19;14.20;99.90
61004;DHT22;46889;37.310;13.582;2024-01-30T08:55:45;14.50;99.90
61004;DHT22;46889;37.310;13.582;2024-01-30T08:58:11;14.70;99.90
61004;DHT22;46889;37.310;13.582;2024-01-30T09:00:38;14.30;99.90
61004;DHT22;46889;37.310;13.582;2024-01-30T09:03:03;14.40;99.90
61004;DHT22;46889;37.310;13.582;2024-01-30T09:05:29;14.20;99.90
61004;DHT22;46889;37.310;13.582;2024-01-30T09:07:55;14.30;99.90
61004;DHT22;46889;37.310;13.582;2024-01-30T09:10:21;13.90;99.90
61004;DHT22;46889;37.310;13.582;2024-01-30T09:12:47;13.90;99.90
61004;DHT22;46889;37.310;13.582;2024-01-30T09:15:13;13.90;99.90
61004;DHT22;46889;37.310;13.582;2024-01-30T09:17:39;13.90;99.90
61004;DHT22;46889;37.310;13.582;2024-01-30T09:20:05;13.90;99.90
61004;DHT22;46889;37.310;13.582;2024-01-30T09:22:31;13.70;99.90
61004;DHT22;46889;37.310;13.582;2024-01-30T09:24:58;13.50;99.90
61004;DHT22;46889;37.310;13.582;2024-01-30T09:27:24;13.50;99.90
61004;DHT22;46889;37.310;13.582;2024-01-30T09:29:50;13.50;99.90
61004;DHT22;46889;37.310;13.582;2024-01-30T09:32:15;13.60;99.90
61004;DHT22;46889;37.310;13.582;2024-01-30T09:34:43;13.60;99.90
61004;DHT22;46889;37.310;13.582;2024-01-30T09:37:09;13.50;99.90
61004;DHT22;46889;37.310;13.582;2024-01-30T09:39:34;13.30;99.90
61004;DHT22;46889;37.310;13.582;2024-01-30T09:42:02;13.10;99.90
61004;DHT22;46889;37.310;13.582;2024-01-30T09:44:29;13.20;99.90
61004;DHT22;46889;37.310;13.582;2024-01-30T09:46:56;13.40;99.90
61004;DHT22;46889;37.310;13.582;2024-01-30T09:49:24;13.70;99.90
61004;DHT22;46889;37.310;13.582;2024-01-30T09:51:50;14.00;99.90
61004;DHT22;46889;37.310;13.582;2024-01-30T09:54:17;13.90;99.90
61004;DHT22;46889;37.310;13.582;2024-01-30T09:56:44;13.80;99.90
61004;DHT22;46889;37.310;13.582;2024-01-30T09:59:10;13.90;99.90
61004;DHT22;46889;37.310;13.582;2024-01-30T10:01:35;14.20;99.90
61004;DHT22;46889;37.310;13.582;2024-01-30T10:04:01;14.00;99.90
61004;DHT22;46889;37.310;13.582;2024-01-30T10:06:27;13.70;99.90
61004;DHT22;46889;37.310;13.582;2024-01-30T10:08:53;13.60;99.90
61004;DHT22;46889;37.310;13.582;2024-01-30T10:11:19;13.60;99.90
61004;DHT22;46889;37.310;13.582;2024-01-30T10:13:45;13.50;99.90
61004;DHT22;46889;37.310;13.582;2024-01-30T10:16:13;13.60;99.90
61004;DHT22;46889;37.310;13.582;2024-01-30T10:18:40;13.80;99.90
61004;DHT22;46889;37.310;13.582;2024-01-30T10:21:08;14.10;99.90
61004;DHT22;46889;37.310;13.582;2024-01-30T10:23:34;14.50;99.90
61004;DHT22;46889;37.310;13.582;2024-01-30T10:26:00;14.70;99.90
61004;DHT22;46889;37.310;13.582;2024-01-30T10:28:29;15.00;99.90
61004;DHT22;46889;37.310;13.582;2024-01-30T10:31:02;14.90;99.90
61004;DHT22;46889;37.310;13.582;2024-01-30T10:33:30;14.90;99.90
61004;DHT22;46889;37.310;13.582;2024-01-30T10:36:00;15.00;99.90
61004;DHT22;46889;37.310;13.582;2024-01-30T10:38:26;15.10;99.90
61004;DHT22;46889;37.310;13.582;2024-01-30T10:40:55;15.20;99.90
61004;DHT22;46889;37.310;13.582;2024-01-30T10:43:22;15.40;99.90
61004;DHT22;46889;37.310;13.582;2024-01-30T10:45:49;15.10;99.90
61004;DHT22;46889;37.310;13.582;2024-01-30T10:48:16;14.70;99.90
61004;DHT22;46889;37.310;13.582;2024-01-30T10:50:43;14.50;99.90
61004;DHT22;46889;37.310;13.582;2024-01-30T10:53:09;14.50;99.90
61004;DHT22;46889;37.310;13.582;2024-01-30T10:55:35;14.20;99.90
61004;DHT22;46889;37.310;13.582;2024-01-30T10:58:03;14.20;99.90
61004;DHT22;46889;37.310;13.582;2024-01-30T11:00:29;14.40;99.90
61004;DHT22;46889;37.310;13.582;2024-01-30T11:02:55;14.30;99.90
61004;DHT22;46889;37.310;13.582;2024-01-30T11:05:24;14.20;99.90
61004;DHT22;46889;37.310;13.582;2024-01-30T11:07:53;14.10;99.90
61004;DHT22;46889;37.310;13.582;2024-01-30T11:10:19;14.20;99.90
61004;DHT22;46889;37.310;13.582;2024-01-30T11:12:45;14.20;99.90
61004;DHT22;46889;37.310;13.582;2024-01-30T11:15:17;14.50;99.90
61004;DHT22;46889;37.310;13.582;2024-01-30T11:20:15;14.80;99.90
61004;DHT22;46889;37.310;13.582;2024-01-30T11:22:45;14.80;99.90
61004;DHT22;46889;37.310;13.582;2024-01-30T11:25:11;14.80;99.90
61004;DHT22;46889;37.310;13.582;2024-01-30T11:27:37;14.80;99.90
61004;DHT22;46889;37.310;13.582;2024-01-30T11:30:04;14.70;99.90
61004;DHT22;46889;37.310;13.582;2024-01-30T11:32:30;14.60;99.90
61004;DHT22;46889;37.310;13.582;2024-01-30T11:34:56;14.40;99.90
61004;DHT22;46889;37.310;13.582;2024-01-30T11:37:22;14.30;99.90
61004;DHT22;46889;37.310;13.582;2024-01-30T11:39:50;14.30;99.90
61004;DHT22;46889;37.310;13.582;2024-01-30T11:42:16;14.70;99.90
61004;DHT22;46889;37.310;13.582;2024-01-30T11:44:46;14.60;99.90
61004;DHT22;46889;37.310;13.582;2024-01-30T11:47:12;14.60;99.90
61004;DHT22;46889;37.310;13.582;2024-01-30T11:49:38;15.10;99.90
61004;DHT22;46889;37.310;13.582;2024-01-30T11:52:04;15.60;99.90
61004;DHT22;46889;37.310;13.582;2024-01-30T11:54:30;15.90;99.90
61004;DHT22;46889;37.310;13.582;2024-01-30T11:56:56;15.80;99.90
61004;DHT22;46889;37.310;13.582;2024-01-30T11:59:22;16.10;99.90
61004;DHT22;46889;37.310;13.582;2024-01-30T12:01:47;16.50;99.90
61004;DHT22;46889;37.310;13.582;2024-01-30T12:04:14;16.60;99.90
61004;DHT22;46889;37.310;13.582;2024-01-30T12:06:40;16.70;99.90
61004;DHT22;46889;37.310;13.582;2024-01-30T12:09:06;17.00;99.90
61004;DHT22;46889;37.310;13.582;2024-01-30T12:11:47;16.80;99.90
61004;DHT22;46889;37.310;13.582;2024-01-30T12:14:14;16.80;99.90
61004;DHT22;46889;37.310;13.582;2024-01-30T12:16:40;17.00;99.90
61004;DHT22;46889;37.310;13.582;2024-01-30T12:19:07;17.20;99.90
61004;DHT22;46889;37.310;13.582;2024-01-30T12:21:33;17.30;99.90
61004;DHT22;46889;37.310;13.582;2024-01-30T12:23:59;17.20;99.90
61004;DHT22;46889;37.310;13.582;2024-01-30T12:26:25;17.10;99.90
61004;DHT22;46889;37.310;13.582;2024-01-30T12:28:54;17.10;99.90
61004;DHT22;46889;37.310;13.582;2024-01-30T12:31:31;17.20;99.90
61004;DHT22;46889;37.310;13.582;2024-01-30T12:33:58;17.40;99.90
61004;DHT22;46889;37.310;13.582;2024-01-30T12:36:24;17.50;99.90
61004;DHT22;46889;37.310;13.582;2024-01-30T12:38:50;17.40;99.90
61004;DHT22;46889;37.310;13.582;2024-01-30T12:41:16;17.40;99.90
61004;DHT22;46889;37.310;13.582;2024-01-30T12:43:42;17.40;99.90
61004;DHT22;46889;37.310;13.582;2024-01-30T12:46:08;17.40;99.90
61004;DHT22;46889;37.310;13.582;2024-01-30T12:48:34;17.50;99.90
61004;DHT22;46889;37.310;13.582;2024-01-30T12:51:00;17.60;99.90
61004;DHT22;46889;37.310;13.582;2024-01-30T12:53:26;17.60;99.90
61004;DHT22;46889;37.310;13.582;2024-01-30T12:55:52;17.50;99.90
61004;DHT22;46889;37.310;13.582;2024-01-30T12:58:20;17.60;99.90
61004;DHT22;46889;37.310;13.582;2024-01-30T13:00:46;17.50;99.90
61004;DHT22;46889;37.310;13.582;2024-01-30T13:03:13;17.50;99.90
61004;DHT22;46889;37.310;13.582;2024-01-30T13:05:38;17.30;99.90
61004;DHT22;46889;37.310;13.582;2024-01-30T13:08:04;17.40;99.90
61004;DHT22;46889;37.310;13.582;2024-01-30T13:10:30;17.40;99.90
61004;DHT22;46889;37.310;13.582;2024-01-30T13:12:56;17.40;99.90
61004;DHT22;46889;37.310;13.582;2024-01-30T13:15:22;17.50;99.90
61004;DHT22;46889;37.310;13.582;2024-01-30T13:17:48;17.40;99.90
61004;DHT22;46889;37.310;13.582;2024-01-30T13:20:15;17.40;99.90
61004;DHT22;46889;37.310;13.582;2024-01-30T13:22:44;17.40;99.90
61004;DHT22;46889;37.310;13.582;2024-01-30T13:25:10;17.50;99.90
61004;DHT22;46889;37.310;13.582;2024-01-30T13:27:37;17.60;99.90
61004;DHT22;46889;37.310;13.582;2024-01-30T13:30:03;17.60;99.90
61004;DHT22;46889;37.310;13.582;2024-01-30T13:32:29;17.50;99.90
61004;DHT22;46889;37.310;13.582;2024-01-30T13:34:55;17.50;99.90
61004;DHT22;46889;37.310;13.582;2024-01-30T13:37:21;17.50;99.90
61004;DHT22;46889;37.310;13.582;2024-01-30T13:39:51;17.50;99.90
61004;DHT22;46889;37.310;13.582;2024-01-30T13:42:32;17.40;99.90
61004;DHT22;46889;37.310;13.582;2024-01-30T13:44:57;17.30;99.90
61004;DHT22;46889;37.310;13.582;2024-01-30T13:47:23;17.20;99.90
61004;DHT22;46889;37.310;13.582;2024-01-30T13:49:49;17.20;99.90
61004;DHT22;46889;37.310;13.582;2024-01-30T13:52:15;17.10;99.90
61004;DHT22;46889;37.310;13.582;2024-01-30T13:54:42;17.20;99.90
61004;DHT22;46889;37.310;13.582;2024-01-30T13:57:08;17.30;99.90
61004;DHT22;46889;37.310;13.582;2024-01-30T13:59:34;17.20;99.90
61004;DHT22;46889;37.310;13.582;2024-01-30T14:02:00;17.10;99.90
61004;DHT22;46889;37.310;13.582;2024-01-30T14:04:26;17.10;99.90
61004;DHT22;46889;37.310;13.582;2024-01-30T14:06:52;17.10;99.90
61004;DHT22;46889;37.310;13.582;2024-01-30T14:09:18;17.00;99.90
61004;DHT22;46889;37.310;13.582;2024-01-30T14:11:43;17.00;99.90
61004;DHT22;46889;37.310;13.582;2024-01-30T14:14:10;17.00;99.90
61004;DHT22;46889;37.310;13.582;2024-01-30T14:16:36;17.10;99.90
61004;DHT22;46889;37.310;13.582;2024-01-30T14:19:01;17.10;99.90
61004;DHT22;46889;37.310;13.582;2024-01-30T14:21:27;17.00;99.90
61004;DHT22;46889;37.310;13.582;2024-01-30T14:23:53;17.00;99.90
61004;DHT22;46889;37.310;13.582;2024-01-30T14:26:19;17.00;99.90
61004;DHT22;46889;37.310;13.582;2024-01-30T14:28:44;17.00;99.90
61004;DHT22;46889;37.310;13.582;2024-01-30T14:31:11;17.00;99.90
61004;DHT22;46889;37.310;13.582;2024-01-30T14:33:37;17.00;99.90
61004;DHT22;46889;37.310;13.582;2024-01-30T14:36:03;16.80;99.90
61004;DHT22;46889;37.310;13.582;2024-01-30T14:38:29;16.70;99.90
61004;DHT22;46889;37.310;13.582;2024-01-30T14:40:55;16.80;99.90
61004;DHT22;46889;37.310;13.582;2024-01-30T14:43:20;16.80;99.90
61004;DHT22;46889;37.310;13.582;2024-01-30T14:45:46;16.80;99.90
61004;DHT22;46889;37.310;13.582;2024-01-30T14:48:15;16.80;99.90
61004;DHT22;46889;37.310;13.582;2024-01-30T14:50:41;16.80;99.90
61004;DHT22;46889;37.310;13.582;2024-01-30T14:53:06;16.80;99.90
61004;DHT22;46889;37.310;13.582;2024-01-30T14:55:32;16.70;99.90
61004;DHT22;46889;37.310;13.582;2024-01-30T14:57:58;16.80;99.90
61004;DHT22;46889;37.310;13.582;2024-01-30T15:00:25;16.80;99.90
61004;DHT22;46889;37.310;13.582;2024-01-30T15:02:50;16.80;99.90
61004;DHT22;46889;37.310;13.582;2024-01-30T15:05:16;16.70;99.90
61004;DHT22;46889;37.310;13.582;2024-01-30T15:07:42;16.70;99.90
61004;DHT22;46889;37.310;13.582;2024-01-30T15:10:08;16.70;99.90
61004;DHT22;46889;37.310;13.582;2024-01-30T15:12:35;16.80;99.90
61004;DHT22;46889;37.310;13.582;2024-01-30T15:15:01;16.80;99.90
61004;DHT22;46889;37.310;13.582;2024-01-30T15:17:27;16.80;99.90
61004;DHT22;46889;37.310;13.582;2024-01-30T15:19:52;16.70;99.90